createdAt,value
2018-10-05T00:00:56.195Z,1016.48
2018-10-05T00:01:56.182Z,1016.44
2018-10-05T00:02:56.221Z,1016.43
2018-10-05T00:03:56.164Z,1016.44
2018-10-05T00:04:56.159Z,1016.40
2018-10-05T00:05:56.155Z,1016.43
2018-10-05T00:06:56.145Z,1016.43
2018-10-05T00:07:56.137Z,1016.39
2018-10-05T00:08:56.132Z,1016.38
2018-10-05T00:09:56.124Z,1016.36
2018-10-05T00:10:56.113Z,1016.32
2018-10-05T00:11:56.105Z,1016.37
2018-10-05T00:12:56.186Z,1016.36
2018-10-05T00:13:56.095Z,1016.33
2018-10-05T00:14:56.087Z,1016.34
2018-10-05T00:15:56.078Z,1016.32
2018-10-05T00:16:56.072Z,1016.30
2018-10-05T00:17:56.063Z,1016.31
2018-10-05T00:18:56.059Z,1016.35
2018-10-05T00:19:56.053Z,1016.34
2018-10-05T00:20:56.042Z,1016.38
2018-10-05T00:21:56.036Z,1016.39
2018-10-05T00:22:56.024Z,1016.38
2018-10-05T00:23:56.021Z,1016.38
2018-10-05T00:24:56.013Z,1016.36
2018-10-05T00:25:56.002Z,1016.38
2018-10-05T00:26:55.995Z,1016.36
2018-10-05T00:27:55.994Z,1016.40
2018-10-05T00:28:55.983Z,1016.37
2018-10-05T00:29:55.978Z,1016.34
2018-10-05T00:30:55.978Z,1016.35
2018-10-05T00:31:55.960Z,1016.32
2018-10-05T00:32:55.955Z,1016.30
2018-10-05T00:33:55.944Z,1016.34
2018-10-05T00:34:55.939Z,1016.30
2018-10-05T00:35:55.931Z,1016.31
2018-10-05T00:36:55.929Z,1016.28
2018-10-05T00:37:55.928Z,1016.27
2018-10-05T00:38:55.906Z,1016.25
2018-10-05T00:39:55.903Z,1016.23
2018-10-05T00:40:55.895Z,1016.22
2018-10-05T00:41:55.889Z,1016.21
2018-10-05T00:42:55.883Z,1016.23
2018-10-05T00:43:55.874Z,1016.18
2018-10-05T00:44:55.864Z,1016.17
2018-10-05T00:45:55.862Z,1016.17
2018-10-05T00:46:55.849Z,1016.13
2018-10-05T00:47:55.840Z,1016.12
2018-10-05T00:48:55.838Z,1016.15
2018-10-05T00:49:55.829Z,1016.15
2018-10-05T00:50:55.820Z,1016.13
2018-10-05T00:51:55.811Z,1016.12
2018-10-05T00:52:55.859Z,1016.11
2018-10-05T00:53:55.802Z,1016.08
2018-10-05T00:54:55.791Z,1016.05
2018-10-05T00:55:55.780Z,1016.04
2018-10-05T00:56:55.779Z,1016.03
2018-10-05T00:57:55.769Z,1016.06
2018-10-05T00:58:55.756Z,1016.06
2018-10-05T00:59:55.750Z,1016.04
2018-10-05T01:00:55.747Z,1016.00
2018-10-05T01:01:55.827Z,1016.03
2018-10-05T01:02:55.728Z,1016.01
2018-10-05T01:03:55.718Z,1016.02
2018-10-05T01:04:55.715Z,1015.97
2018-10-05T01:05:55.715Z,1015.96
2018-10-05T01:06:55.724Z,1015.93
2018-10-05T01:07:55.691Z,1015.90
2018-10-05T01:08:55.691Z,1015.90
2018-10-05T01:09:55.683Z,1015.87
2018-10-05T01:10:55.666Z,1015.86
2018-10-05T01:11:55.664Z,1015.85
2018-10-05T01:12:55.666Z,1015.86
2018-10-05T01:13:55.660Z,1015.83
2018-10-05T01:14:55.641Z,1015.84
2018-10-05T01:15:55.641Z,1015.84
2018-10-05T01:16:55.624Z,1015.87
2018-10-05T01:17:55.634Z,1015.79
2018-10-05T01:18:55.609Z,1015.83
2018-10-05T01:19:55.612Z,1015.79
2018-10-05T01:20:55.608Z,1015.80
2018-10-05T01:21:55.588Z,1015.82
2018-10-05T01:22:55.598Z,1015.78
2018-10-05T01:23:55.571Z,1015.76
2018-10-05T01:24:55.614Z,1015.78
2018-10-05T01:25:55.556Z,1015.74
2018-10-05T01:26:55.556Z,1015.76
2018-10-05T01:27:55.553Z,1015.70
2018-10-05T01:28:55.537Z,1015.69
2018-10-05T01:29:55.529Z,1015.67
2018-10-05T01:30:55.519Z,1015.67
2018-10-05T01:31:55.512Z,1015.66
2018-10-05T01:32:55.501Z,1015.69
2018-10-05T01:33:55.500Z,1015.65
2018-10-05T01:34:55.489Z,1015.63
2018-10-05T01:35:55.484Z,1015.67
2018-10-05T01:36:55.478Z,1015.65
2018-10-05T01:37:55.467Z,1015.64
2018-10-05T01:38:55.546Z,1015.62
2018-10-05T01:39:55.460Z,1015.67
2018-10-05T01:40:55.445Z,1015.67
2018-10-05T01:41:55.435Z,1015.66
2018-10-05T01:42:55.433Z,1015.64
2018-10-05T01:43:55.435Z,1015.62
2018-10-05T01:44:55.415Z,1015.63
2018-10-05T01:45:55.413Z,1015.65
2018-10-05T01:46:55.396Z,1015.62
2018-10-05T01:47:55.396Z,1015.63
2018-10-05T01:48:55.380Z,1015.61
2018-10-05T01:49:55.376Z,1015.62
2018-10-05T01:50:55.368Z,1015.60
2018-10-05T01:51:55.364Z,1015.62
2018-10-05T01:52:55.352Z,1015.58
2018-10-05T01:53:55.352Z,1015.59
2018-10-05T01:54:55.342Z,1015.57
2018-10-05T01:55:55.333Z,1015.59
2018-10-05T01:56:55.326Z,1015.62
2018-10-05T01:57:55.319Z,1015.58
2018-10-05T01:58:55.312Z,1015.56
2018-10-05T01:59:55.300Z,1015.54
2018-10-05T02:00:55.295Z,1015.56
2018-10-05T02:01:55.286Z,1015.53
2018-10-05T02:02:55.279Z,1015.53
2018-10-05T02:03:55.272Z,1015.53
2018-10-05T02:04:55.265Z,1015.53
2018-10-05T02:05:55.256Z,1015.54
2018-10-05T02:06:55.250Z,1015.53
2018-10-05T02:07:55.242Z,1015.50
2018-10-05T02:08:55.234Z,1015.51
2018-10-05T02:09:55.227Z,1015.49
2018-10-05T02:10:55.218Z,1015.49
2018-10-05T02:11:55.211Z,1015.51
2018-10-05T02:12:55.206Z,1015.51
2018-10-05T02:13:55.195Z,1015.48
2018-10-05T02:14:55.187Z,1015.50
2018-10-05T02:15:55.186Z,1015.51
2018-10-05T02:16:55.176Z,1015.42
2018-10-05T02:17:55.163Z,1015.47
2018-10-05T02:18:55.156Z,1015.44
2018-10-05T02:19:55.149Z,1015.41
2018-10-05T02:20:55.143Z,1015.44
2018-10-05T02:21:55.137Z,1015.41
2018-10-05T02:22:55.127Z,1015.41
2018-10-05T02:23:55.125Z,1015.39
2018-10-05T02:24:55.111Z,1015.36
2018-10-05T02:25:55.104Z,1015.33
2018-10-05T02:26:55.094Z,1015.30
2018-10-05T02:27:55.086Z,1015.34
2018-10-05T02:28:55.077Z,1015.31
2018-10-05T02:29:55.076Z,1015.32
2018-10-05T02:30:55.068Z,1015.32
2018-10-05T02:31:55.060Z,1015.30
2018-10-05T02:32:55.105Z,1015.24
2018-10-05T02:33:55.042Z,1015.26
2018-10-05T02:34:55.032Z,1015.27
2018-10-05T02:35:55.024Z,1015.27
2018-10-05T02:36:55.021Z,1015.28
2018-10-05T02:37:55.012Z,1015.23
2018-10-05T02:38:55.007Z,1015.25
2018-10-05T02:39:54.995Z,1015.26
2018-10-05T02:40:54.987Z,1015.24
2018-10-05T02:41:54.978Z,1015.24
2018-10-05T02:42:54.969Z,1015.19
2018-10-05T02:43:54.966Z,1015.19
2018-10-05T02:44:54.960Z,1015.20
2018-10-05T02:45:54.951Z,1015.18
2018-10-05T02:46:54.943Z,1015.21
2018-10-05T02:47:54.936Z,1015.14
2018-10-05T02:48:54.929Z,1015.17
2018-10-05T02:49:54.919Z,1015.17
2018-10-05T02:50:54.909Z,1015.17
2018-10-05T02:51:54.903Z,1015.19
2018-10-05T02:52:54.900Z,1015.16
2018-10-05T02:53:54.889Z,1015.18
2018-10-05T02:54:54.879Z,1015.16
2018-10-05T02:55:54.870Z,1015.15
2018-10-05T02:56:54.869Z,1015.12
2018-10-05T02:57:54.858Z,1015.13
2018-10-05T02:58:54.847Z,1015.18
2018-10-05T02:59:54.843Z,1015.13
2018-10-05T03:00:54.834Z,1015.12
2018-10-05T03:01:54.830Z,1015.10
2018-10-05T03:02:54.814Z,1015.10
2018-10-05T03:03:54.805Z,1015.09
2018-10-05T03:04:54.799Z,1015.06
2018-10-05T03:05:54.794Z,1015.05
2018-10-05T03:06:54.785Z,1015.03
2018-10-05T03:07:54.780Z,1015.03
2018-10-05T03:08:54.765Z,1015.04
2018-10-05T03:09:54.760Z,1015.03
2018-10-05T03:10:54.753Z,1015.01
2018-10-05T03:11:54.746Z,1015.03
2018-10-05T03:12:54.740Z,1015.05
2018-10-05T03:13:54.732Z,1014.99
2018-10-05T03:14:54.724Z,1014.98
2018-10-05T03:15:54.715Z,1015.01
2018-10-05T03:16:54.706Z,1015.00
2018-10-05T03:17:54.696Z,1014.98
2018-10-05T03:18:54.687Z,1014.98
2018-10-05T03:19:54.749Z,1014.97
2018-10-05T03:20:54.706Z,1014.94
2018-10-05T03:21:54.670Z,1014.95
2018-10-05T03:22:54.656Z,1014.95
2018-10-05T03:23:54.649Z,1014.90
2018-10-05T03:24:54.644Z,1014.91
2018-10-05T03:25:54.640Z,1014.88
2018-10-05T03:26:54.631Z,1014.87
2018-10-05T03:27:54.624Z,1014.84
2018-10-05T03:28:54.616Z,1014.79
2018-10-05T03:29:54.605Z,1014.77
2018-10-05T03:31:01.330Z,1014.78
2018-10-05T03:31:54.603Z,1014.80
2018-10-05T03:32:54.585Z,1014.75
2018-10-05T03:33:54.577Z,1014.77
2018-10-05T03:34:54.569Z,1014.75
2018-10-05T03:35:54.559Z,1014.79
2018-10-05T03:36:54.555Z,1014.76
2018-10-05T03:37:54.544Z,1014.76
2018-10-05T03:38:54.552Z,1014.77
2018-10-05T03:39:54.523Z,1014.74
2018-10-05T03:40:54.520Z,1014.73
2018-10-05T03:41:54.514Z,1014.73
2018-10-05T03:42:54.504Z,1014.73
2018-10-05T03:43:54.498Z,1014.73
2018-10-05T03:44:54.488Z,1014.71
2018-10-05T03:45:54.479Z,1014.69
2018-10-05T03:46:54.476Z,1014.70
2018-10-05T03:47:54.463Z,1014.68
2018-10-05T03:48:54.463Z,1014.69
2018-10-05T03:49:54.454Z,1014.69
2018-10-05T03:50:54.442Z,1014.70
2018-10-05T03:51:54.439Z,1014.71
2018-10-05T03:52:54.425Z,1014.72
2018-10-05T03:53:54.419Z,1014.67
2018-10-05T03:54:54.409Z,1014.68
2018-10-05T03:55:54.405Z,1014.68
2018-10-05T03:56:54.394Z,1014.72
2018-10-05T03:57:54.388Z,1014.69
2018-10-05T03:58:54.374Z,1014.69
2018-10-05T03:59:54.368Z,1014.67
2018-10-05T04:00:54.359Z,1014.72
2018-10-05T04:01:54.359Z,1014.65
2018-10-05T04:02:54.348Z,1014.67
2018-10-05T04:03:54.340Z,1014.65
2018-10-05T04:04:54.330Z,1014.68
2018-10-05T04:05:54.325Z,1014.67
2018-10-05T04:06:54.311Z,1014.65
2018-10-05T04:07:54.302Z,1014.65
2018-10-05T04:08:54.296Z,1014.67
2018-10-05T04:09:54.292Z,1014.61
2018-10-05T04:10:54.284Z,1014.61
2018-10-05T04:11:54.277Z,1014.60
2018-10-05T04:12:54.267Z,1014.59
2018-10-05T04:13:54.255Z,1014.61
2018-10-05T04:14:54.250Z,1014.60
2018-10-05T04:15:54.239Z,1014.59
2018-10-05T04:16:54.244Z,1014.60
2018-10-05T04:17:54.228Z,1014.60
2018-10-05T04:18:54.216Z,1014.58
2018-10-05T04:19:54.211Z,1014.60
2018-10-05T04:20:54.206Z,1014.59
2018-10-05T04:21:54.190Z,1014.59
2018-10-05T04:22:54.182Z,1014.59
2018-10-05T04:23:54.177Z,1014.60
2018-10-05T04:24:54.169Z,1014.55
2018-10-05T04:25:54.161Z,1014.56
2018-10-05T04:26:54.157Z,1014.59
2018-10-05T04:27:54.144Z,1014.54
2018-10-05T04:28:54.134Z,1014.54
2018-10-05T04:29:54.129Z,1014.56
2018-10-05T04:30:54.119Z,1014.55
2018-10-05T04:31:54.115Z,1014.49
2018-10-05T04:32:54.106Z,1014.49
2018-10-05T04:33:54.098Z,1014.53
2018-10-05T04:34:54.093Z,1014.51
2018-10-05T04:35:54.100Z,1014.50
2018-10-05T04:36:54.070Z,1014.53
2018-10-05T04:37:54.065Z,1014.53
2018-10-05T04:38:54.057Z,1014.52
2018-10-05T04:39:54.050Z,1014.46
2018-10-05T04:40:54.045Z,1014.47
2018-10-05T04:41:54.031Z,1014.46
2018-10-05T04:42:54.022Z,1014.41
2018-10-05T04:43:54.015Z,1014.46
2018-10-05T04:44:54.009Z,1014.43
2018-10-05T04:45:53.998Z,1014.44
2018-10-05T04:46:53.994Z,1014.44
2018-10-05T04:47:53.988Z,1014.36
2018-10-05T04:48:53.977Z,1014.38
2018-10-05T04:49:53.968Z,1014.37
2018-10-05T04:50:53.961Z,1014.39
2018-10-05T04:51:53.955Z,1014.38
2018-10-05T04:52:53.946Z,1014.38
2018-10-05T04:53:53.941Z,1014.39
2018-10-05T04:54:53.927Z,1014.36
2018-10-05T04:55:53.925Z,1014.40
2018-10-05T04:56:53.943Z,1014.37
2018-10-05T04:57:53.904Z,1014.38
2018-10-05T04:58:53.898Z,1014.38
2018-10-05T04:59:53.891Z,1014.39
2018-10-05T05:00:53.880Z,1014.35
2018-10-05T05:01:53.876Z,1014.38
2018-10-05T05:02:53.868Z,1014.36
2018-10-05T05:03:53.851Z,1014.38
2018-10-05T05:04:53.844Z,1014.31
2018-10-05T05:05:53.843Z,1014.33
2018-10-05T05:06:53.831Z,1014.30
2018-10-05T05:07:53.827Z,1014.28
2018-10-05T05:08:53.821Z,1014.29
2018-10-05T05:09:53.811Z,1014.29
2018-10-05T05:10:53.793Z,1014.27
2018-10-05T05:11:53.792Z,1014.28
2018-10-05T05:12:53.780Z,1014.27
2018-10-05T05:13:53.777Z,1014.27
2018-10-05T05:14:53.766Z,1014.26
2018-10-05T05:15:53.760Z,1014.27
2018-10-05T05:16:53.751Z,1014.28
2018-10-05T05:17:53.743Z,1014.25
2018-10-05T05:18:53.730Z,1014.30
2018-10-05T05:19:53.726Z,1014.30
2018-10-05T05:20:53.721Z,1014.29
2018-10-05T05:21:53.711Z,1014.28
2018-10-05T05:22:53.702Z,1014.28
2018-10-05T05:23:53.689Z,1014.28
2018-10-05T05:24:53.686Z,1014.27
2018-10-05T05:25:53.673Z,1014.23
2018-10-05T05:26:53.670Z,1014.25
2018-10-05T05:27:53.659Z,1014.26
2018-10-05T05:28:53.651Z,1014.31
2018-10-05T05:29:53.645Z,1014.32
2018-10-05T05:30:53.641Z,1014.29
2018-10-05T05:31:53.633Z,1014.31
2018-10-05T05:32:53.619Z,1014.30
2018-10-05T05:33:53.637Z,1014.32
2018-10-05T05:34:53.610Z,1014.33
2018-10-05T05:35:53.595Z,1014.29
2018-10-05T05:36:53.589Z,1014.30
2018-10-05T05:37:53.574Z,1014.27
2018-10-05T05:38:53.568Z,1014.27
2018-10-05T05:39:53.561Z,1014.28
2018-10-05T05:40:53.558Z,1014.25
2018-10-05T05:41:53.547Z,1014.22
2018-10-05T05:42:53.534Z,1014.24
2018-10-05T05:43:53.527Z,1014.27
2018-10-05T05:44:53.522Z,1014.22
2018-10-05T05:45:53.514Z,1014.28
2018-10-05T05:46:53.587Z,1014.22
2018-10-05T05:47:53.503Z,1014.26
2018-10-05T05:48:53.492Z,1014.26
2018-10-05T05:49:53.481Z,1014.27
2018-10-05T05:50:53.471Z,1014.26
2018-10-05T05:51:53.464Z,1014.27
2018-10-05T05:52:53.456Z,1014.22
2018-10-05T05:53:53.497Z,1014.22
2018-10-05T05:54:53.439Z,1014.23
2018-10-05T05:55:53.433Z,1014.19
2018-10-05T05:56:53.421Z,1014.24
2018-10-05T05:57:53.425Z,1014.23
2018-10-05T05:58:53.405Z,1014.20
2018-10-05T05:59:53.400Z,1014.21
2018-10-05T06:00:53.391Z,1014.18
2018-10-05T06:01:53.382Z,1014.23
2018-10-05T06:02:53.374Z,1014.23
2018-10-05T06:03:53.364Z,1014.26
2018-10-05T06:04:53.359Z,1014.21
2018-10-05T06:05:53.350Z,1014.22
2018-10-05T06:06:53.341Z,1014.20
2018-10-05T06:07:53.333Z,1014.17
2018-10-05T06:08:53.325Z,1014.18
2018-10-05T06:09:53.313Z,1014.19
2018-10-05T06:10:53.308Z,1014.22
2018-10-05T06:11:53.301Z,1014.16
2018-10-05T06:12:53.292Z,1014.19
2018-10-05T06:13:53.286Z,1014.20
2018-10-05T06:14:53.283Z,1014.20
2018-10-05T06:15:53.312Z,1014.20
2018-10-05T06:16:53.259Z,1014.18
2018-10-05T06:17:53.255Z,1014.20
2018-10-05T06:18:53.244Z,1014.18
2018-10-05T06:19:53.238Z,1014.19
2018-10-05T06:20:53.224Z,1014.19
2018-10-05T06:21:53.440Z,1014.18
2018-10-05T06:22:53.213Z,1014.17
2018-10-05T06:23:53.201Z,1014.18
2018-10-05T06:24:53.196Z,1014.22
2018-10-05T06:25:53.189Z,1014.17
2018-10-05T06:26:53.179Z,1014.18
2018-10-05T06:27:53.168Z,1014.16
2018-10-05T06:28:53.166Z,1014.18
2018-10-05T06:29:53.157Z,1014.17
2018-10-05T06:30:53.253Z,1014.20
2018-10-05T06:31:53.138Z,1014.19
2018-10-05T06:32:53.135Z,1014.18
2018-10-05T06:33:53.122Z,1014.20
2018-10-05T06:34:53.113Z,1014.25
2018-10-05T06:35:53.106Z,1014.24
2018-10-05T06:36:53.098Z,1014.28
2018-10-05T06:37:53.097Z,1014.25
2018-10-05T06:38:53.093Z,1014.26
2018-10-05T06:39:53.076Z,1014.25
2018-10-05T06:40:53.074Z,1014.28
2018-10-05T06:41:53.080Z,1014.26
2018-10-05T06:42:53.046Z,1014.31
2018-10-05T06:43:53.049Z,1014.31
2018-10-05T06:44:53.047Z,1014.33
2018-10-05T06:45:53.030Z,1014.29
2018-10-05T06:46:53.020Z,1014.34
2018-10-05T06:47:53.011Z,1014.33
2018-10-05T06:48:52.999Z,1014.24
2018-10-05T06:49:52.995Z,1014.28
2018-10-05T06:50:52.987Z,1014.25
2018-10-05T06:51:52.980Z,1014.26
2018-10-05T06:52:52.977Z,1014.29
2018-10-05T06:53:52.962Z,1014.26
2018-10-05T06:54:52.953Z,1014.29
2018-10-05T06:55:52.946Z,1014.29
2018-10-05T06:56:52.942Z,1014.27
2018-10-05T06:57:52.939Z,1014.31
2018-10-05T06:58:52.927Z,1014.33
2018-10-05T06:59:52.919Z,1014.28
2018-10-05T07:00:52.913Z,1014.28
2018-10-05T07:01:52.954Z,1014.26
2018-10-05T07:02:52.896Z,1014.25
2018-10-05T07:03:52.886Z,1014.28
2018-10-05T07:04:52.880Z,1014.26
2018-10-05T07:05:52.873Z,1014.28
2018-10-05T07:06:52.865Z,1014.30
2018-10-05T07:07:52.921Z,1014.28
2018-10-05T07:08:52.846Z,1014.29
2018-10-05T07:09:52.845Z,1014.30
2018-10-05T07:10:52.830Z,1014.32
2018-10-05T07:11:52.827Z,1014.28
2018-10-05T07:12:52.820Z,1014.29
2018-10-05T07:13:52.810Z,1014.29
2018-10-05T07:14:52.817Z,1014.30
2018-10-05T07:15:52.868Z,1014.24
2018-10-05T07:16:52.846Z,1014.29
2018-10-05T07:17:52.779Z,1014.27
2018-10-05T07:18:52.769Z,1014.19
2018-10-05T07:19:52.759Z,1014.20
2018-10-05T07:20:52.757Z,1014.19
2018-10-05T07:21:52.752Z,1014.17
2018-10-05T07:22:52.741Z,1014.13
2018-10-05T07:23:52.730Z,1014.15
2018-10-05T07:24:52.728Z,1014.14
2018-10-05T07:25:52.719Z,1014.14
2018-10-05T07:26:52.711Z,1014.14
2018-10-05T07:27:52.704Z,1014.09
2018-10-05T07:28:52.699Z,1014.11
2018-10-05T07:29:52.687Z,1014.10
2018-10-05T07:30:52.680Z,1014.06
2018-10-05T07:31:52.675Z,1014.09
2018-10-05T07:32:52.667Z,1014.06
2018-10-05T07:33:52.660Z,1014.06
2018-10-05T07:34:52.653Z,1014.08
2018-10-05T07:35:52.649Z,1014.06
2018-10-05T07:36:52.684Z,1014.05
2018-10-05T07:37:52.635Z,1014.06
2018-10-05T07:38:52.623Z,1014.10
2018-10-05T07:39:52.621Z,1014.10
2018-10-05T07:40:52.606Z,1014.13
2018-10-05T07:41:52.604Z,1014.12
2018-10-05T07:42:52.644Z,1014.13
2018-10-05T07:43:52.585Z,1014.10
2018-10-05T07:44:52.575Z,1014.13
2018-10-05T07:45:52.568Z,1014.13
2018-10-05T07:46:52.556Z,1014.15
2018-10-05T07:47:52.553Z,1014.16
2018-10-05T07:48:52.546Z,1014.15
2018-10-05T07:49:52.542Z,1014.11
2018-10-05T07:50:52.527Z,1014.07
2018-10-05T07:51:52.582Z,1014.10
2018-10-05T07:52:52.515Z,1014.07
2018-10-05T07:53:52.507Z,1014.05
2018-10-05T07:54:52.498Z,1014.08
2018-10-05T07:55:52.496Z,1014.08
2018-10-05T07:56:52.487Z,1014.08
2018-10-05T07:57:52.565Z,1014.15
2018-10-05T07:58:52.472Z,1014.10
2018-10-05T07:59:52.468Z,1014.09
2018-10-05T08:00:52.453Z,1014.11
2018-10-05T08:01:52.447Z,1014.04
2018-10-05T08:02:52.441Z,1014.04
2018-10-05T08:03:52.435Z,1014.03
2018-10-05T08:04:52.427Z,1014.02
2018-10-05T08:05:52.422Z,1014.05
2018-10-05T08:06:52.413Z,1014.08
2018-10-05T08:07:52.402Z,1014.07
2018-10-05T08:08:52.400Z,1014.06
2018-10-05T08:09:52.393Z,1014.06
2018-10-05T08:10:52.385Z,1014.04
2018-10-05T08:11:52.382Z,1014.06
2018-10-05T08:12:52.367Z,1014.05
2018-10-05T08:13:52.363Z,1014.03
2018-10-05T08:14:52.354Z,1014.00
2018-10-05T08:15:52.346Z,1014.03
2018-10-05T08:16:52.341Z,1014.02
2018-10-05T08:17:52.334Z,1014.03
2018-10-05T08:18:52.329Z,1014.02
2018-10-05T08:19:52.326Z,1014.00
2018-10-05T08:20:52.325Z,1013.96
2018-10-05T08:21:52.302Z,1013.98
2018-10-05T08:22:52.297Z,1013.96
2018-10-05T08:23:52.293Z,1013.96
2018-10-05T08:24:52.287Z,1013.92
2018-10-05T08:25:52.279Z,1013.96
2018-10-05T08:26:52.275Z,1013.95
2018-10-05T08:27:52.274Z,1013.92
2018-10-05T08:28:52.255Z,1013.97
2018-10-05T08:29:52.250Z,1013.92
2018-10-05T08:30:52.244Z,1013.90
2018-10-05T08:31:52.236Z,1013.88
2018-10-05T08:32:52.231Z,1013.92
2018-10-05T08:33:52.234Z,1013.90
2018-10-05T08:34:52.212Z,1013.92
2018-10-05T08:35:52.211Z,1013.91
2018-10-05T08:36:52.203Z,1013.94
2018-10-05T08:37:52.195Z,1013.93
2018-10-05T08:38:52.189Z,1013.94
2018-10-05T08:39:52.252Z,1013.91
2018-10-05T08:40:52.171Z,1013.89
2018-10-05T08:41:52.175Z,1013.84
2018-10-05T08:42:52.163Z,1013.82
2018-10-05T08:43:52.157Z,1013.80
2018-10-05T08:44:52.147Z,1013.80
2018-10-05T08:45:52.168Z,1013.84
2018-10-05T08:46:52.135Z,1013.83
2018-10-05T08:47:52.131Z,1013.85
2018-10-05T08:48:52.124Z,1013.85
2018-10-05T08:49:52.127Z,1013.86
2018-10-05T08:50:52.116Z,1013.83
2018-10-05T08:51:52.157Z,1013.80
2018-10-05T08:52:52.099Z,1013.87
2018-10-05T08:53:52.097Z,1013.84
2018-10-05T08:54:52.095Z,1013.85
2018-10-05T08:55:52.091Z,1013.83
2018-10-05T08:56:52.088Z,1013.80
2018-10-05T08:57:52.088Z,1013.81
2018-10-05T08:58:52.082Z,1013.80
2018-10-05T08:59:52.090Z,1013.85
2018-10-05T09:00:52.076Z,1013.82
2018-10-05T09:01:52.074Z,1013.81
2018-10-05T09:02:52.128Z,1013.83
2018-10-05T09:03:52.070Z,1013.79
2018-10-05T09:04:52.073Z,1013.77
2018-10-05T09:05:52.091Z,1013.75
2018-10-05T09:06:52.069Z,1013.74
2018-10-05T09:07:52.071Z,1013.77
2018-10-05T09:08:52.069Z,1013.78
2018-10-05T09:09:52.069Z,1013.74
2018-10-05T09:10:52.070Z,1013.72
2018-10-05T09:11:52.075Z,1013.75
2018-10-05T09:12:52.076Z,1013.72
2018-10-05T09:13:52.072Z,1013.73
2018-10-05T09:14:52.070Z,1013.68
2018-10-05T09:15:52.075Z,1013.73
2018-10-05T09:16:52.086Z,1013.74
2018-10-05T09:17:52.176Z,1013.64
2018-10-05T09:18:52.076Z,1013.67
2018-10-05T09:19:52.082Z,1013.72
2018-10-05T09:20:52.081Z,1013.69
2018-10-05T09:21:52.086Z,1013.70
2018-10-05T09:22:52.087Z,1013.65
2018-10-05T09:23:52.092Z,1013.69
2018-10-05T09:24:52.095Z,1013.72
2018-10-05T09:25:52.098Z,1013.68
2018-10-05T09:26:52.099Z,1013.70
2018-10-05T09:27:52.108Z,1013.67
2018-10-05T09:28:52.105Z,1013.66
2018-10-05T09:29:52.105Z,1013.66
2018-10-05T09:30:52.112Z,1013.63
2018-10-05T09:31:52.114Z,1013.62
2018-10-05T09:32:52.115Z,1013.59
2018-10-05T09:33:52.125Z,1013.55
2018-10-05T09:34:52.125Z,1013.58
2018-10-05T09:35:52.128Z,1013.52
2018-10-05T09:36:52.138Z,1013.56
2018-10-05T09:37:52.219Z,1013.51
2018-10-05T09:38:52.137Z,1013.46
2018-10-05T09:39:52.141Z,1013.45
2018-10-05T09:40:52.142Z,1013.42
2018-10-05T09:41:52.147Z,1013.40
2018-10-05T09:42:52.159Z,1013.43
2018-10-05T09:43:52.153Z,1013.41
2018-10-05T09:44:52.202Z,1013.39
2018-10-05T09:45:52.164Z,1013.34
2018-10-05T09:46:52.167Z,1013.31
2018-10-05T09:47:52.175Z,1013.32
2018-10-05T09:48:52.172Z,1013.27
2018-10-05T09:49:52.178Z,1013.26
2018-10-05T09:50:52.189Z,1013.29
2018-10-05T09:51:52.196Z,1013.27
2018-10-05T09:52:52.199Z,1013.28
2018-10-05T09:53:52.205Z,1013.25
2018-10-05T09:54:52.197Z,1013.25
2018-10-05T09:55:52.205Z,1013.20
2018-10-05T09:56:52.214Z,1013.19
2018-10-05T09:57:52.217Z,1013.18
2018-10-05T09:58:52.220Z,1013.14
2018-10-05T09:59:52.301Z,1013.16
2018-10-05T10:00:52.232Z,1013.13
2018-10-05T10:01:52.235Z,1013.10
2018-10-05T10:02:52.241Z,1013.08
2018-10-05T10:03:52.243Z,1013.07
2018-10-05T10:04:52.246Z,1013.03
2018-10-05T10:05:52.262Z,1013.00
2018-10-05T10:06:52.255Z,1012.96
2018-10-05T10:07:52.271Z,1012.95
2018-10-05T10:08:52.272Z,1012.94
2018-10-05T10:09:52.273Z,1012.93
2018-10-05T10:10:52.276Z,1012.91
2018-10-05T10:11:52.284Z,1012.93
2018-10-05T10:12:52.289Z,1012.85
2018-10-05T10:13:52.344Z,1012.86
2018-10-05T10:14:52.296Z,1012.84
2018-10-05T10:15:52.302Z,1012.81
2018-10-05T10:16:52.321Z,1012.82
2018-10-05T10:17:52.310Z,1012.78
2018-10-05T10:18:52.316Z,1012.77
2018-10-05T10:19:52.333Z,1012.77
2018-10-05T10:20:52.326Z,1012.76
2018-10-05T10:21:52.331Z,1012.73
2018-10-05T10:22:52.333Z,1012.73
2018-10-05T10:23:52.339Z,1012.77
2018-10-05T10:24:52.342Z,1012.75
2018-10-05T10:25:52.347Z,1012.75
2018-10-05T10:26:52.353Z,1012.77
2018-10-05T10:27:52.391Z,1012.74
2018-10-05T10:28:52.372Z,1012.78
2018-10-05T10:29:52.366Z,1012.74
2018-10-05T10:30:52.373Z,1012.77
2018-10-05T10:31:52.375Z,1012.73
2018-10-05T10:32:52.385Z,1012.77
2018-10-05T10:33:52.393Z,1012.78
2018-10-05T10:34:52.395Z,1012.80
2018-10-05T10:35:52.415Z,1012.71
2018-10-05T10:36:52.547Z,1012.73
2018-10-05T10:37:52.406Z,1012.65
2018-10-05T10:38:52.411Z,1012.68
2018-10-05T10:39:52.479Z,1012.72
2018-10-05T10:40:52.426Z,1012.62
2018-10-05T10:41:52.428Z,1012.61
2018-10-05T10:42:52.437Z,1012.57
2018-10-05T10:43:52.442Z,1012.57
2018-10-05T10:44:52.448Z,1012.56
2018-10-05T10:45:52.453Z,1012.54
2018-10-05T10:46:52.457Z,1012.53
2018-10-05T10:47:52.475Z,1012.53
2018-10-05T10:48:52.475Z,1012.48
2018-10-05T10:49:52.476Z,1012.49
2018-10-05T10:50:52.480Z,1012.50
2018-10-05T10:51:52.524Z,1012.46
2018-10-05T10:52:52.543Z,1012.46
2018-10-05T10:53:52.499Z,1012.48
2018-10-05T10:54:52.521Z,1012.46
2018-10-05T10:55:52.507Z,1012.47
2018-10-05T10:56:52.510Z,1012.39
2018-10-05T10:57:52.517Z,1012.39
2018-10-05T10:58:52.521Z,1012.36
2018-10-05T10:59:52.530Z,1012.43
2018-10-05T11:00:52.554Z,1012.40
2018-10-05T11:01:52.536Z,1012.41
2018-10-05T11:02:52.540Z,1012.34
2018-10-05T11:03:52.583Z,1012.33
2018-10-05T11:04:52.616Z,1012.32
2018-10-05T11:05:52.562Z,1012.32
2018-10-05T11:06:52.564Z,1012.28
2018-10-05T11:07:52.569Z,1012.28
2018-10-05T11:08:52.573Z,1012.29
2018-10-05T11:09:52.591Z,1012.26
2018-10-05T11:10:52.616Z,1012.27
2018-10-05T11:11:52.592Z,1012.25
2018-10-05T11:12:52.600Z,1012.23
2018-10-05T11:13:52.600Z,1012.24
2018-10-05T11:14:52.607Z,1012.20
2018-10-05T11:15:52.608Z,1012.17
2018-10-05T11:16:52.674Z,1012.21
2018-10-05T11:17:52.624Z,1012.19
2018-10-05T11:18:52.632Z,1012.17
2018-10-05T11:19:52.636Z,1012.18
2018-10-05T11:20:52.646Z,1012.12
2018-10-05T11:21:52.650Z,1012.13
2018-10-05T11:22:52.652Z,1012.03
2018-10-05T11:23:52.658Z,1012.05
2018-10-05T11:24:52.665Z,1012.08
2018-10-05T11:25:52.669Z,1012.06
2018-10-05T11:26:52.675Z,1012.02
2018-10-05T11:27:52.682Z,1012.00
2018-10-05T11:28:52.688Z,1011.98
2018-10-05T11:29:52.694Z,1011.93
2018-10-05T11:30:53.581Z,1011.93
2018-10-05T11:31:52.698Z,1011.88
2018-10-05T11:32:52.710Z,1011.82
2018-10-05T11:33:52.709Z,1011.80
2018-10-05T11:34:52.749Z,1011.81
2018-10-05T11:35:52.720Z,1011.77
2018-10-05T11:36:52.723Z,1011.77
2018-10-05T11:37:52.735Z,1011.68
2018-10-05T11:38:52.737Z,1011.69
2018-10-05T11:39:52.741Z,1011.67
2018-10-05T11:40:52.808Z,1011.62
2018-10-05T11:41:52.760Z,1011.58
2018-10-05T11:42:52.756Z,1011.59
2018-10-05T11:43:52.762Z,1011.55
2018-10-05T11:44:52.768Z,1011.53
2018-10-05T11:45:52.778Z,1011.49
2018-10-05T11:46:52.787Z,1011.47
2018-10-05T11:47:52.785Z,1011.49
2018-10-05T11:48:52.793Z,1011.52
2018-10-05T11:49:52.787Z,1011.46
2018-10-05T11:50:52.796Z,1011.46
2018-10-05T11:51:52.798Z,1011.41
2018-10-05T11:52:52.808Z,1011.37
2018-10-05T11:53:52.813Z,1011.36
2018-10-05T11:54:52.817Z,1011.36
2018-10-05T11:55:52.827Z,1011.36
2018-10-05T11:56:52.833Z,1011.33
2018-10-05T11:57:52.834Z,1011.34
2018-10-05T11:58:52.846Z,1011.32
2018-10-05T11:59:52.919Z,1011.27
2018-10-05T12:00:52.849Z,1011.23
2018-10-05T12:01:52.857Z,1011.19
2018-10-05T12:02:52.859Z,1011.23
2018-10-05T12:03:52.867Z,1011.22
2018-10-05T12:04:52.874Z,1011.25
2018-10-05T12:05:52.873Z,1011.20